Time;durP1;ratioP1;P1;durP2;ratioP2;P2;SDS_P1;SDS_P2;PMS_P1;PMS_P2;Temp;Humidity;BMP_temperature;BMP_pressure;BME280_temperature;BME280_humidity;BME280_pressure;Samples;Min_cycle;Max_cycle;Signal;HPM_P1;HPM_P2
2023/04/21 00:01:21;;;;;;;19.40;4.50;;;;;;;8.20;87.68;100670.23;107641;1248;99342;-66
2023/04/21 00:03:49;;;;;;;29.70;3.10;;;;;;;8.19;87.86;100666.36;107597;1254;113443;-65
2023/04/21 00:06:21;;;;;;;27.80;2.60;;;;;;;8.19;88.02;100660.10;107981;1251;109968;-65
2023/04/21 00:08:50;;;;;;;18.40;2.70;;;;;;;8.17;87.39;100662.61;107682;1252;106513;-67
2023/04/21 00:11:19;;;;;;;28.00;3.80;;;;;;;8.15;87.61;100663.84;107754;1249;99208;-66
2023/04/21 00:13:47;;;;;;;20.30;3.00;;;;;;;8.15;88.03;100666.86;107816;1251;99767;-66
2023/04/21 00:16:16;;;;;;;27.70;5.20;;;;;;;8.14;87.95;100664.39;107924;1247;112556;-67
2023/04/21 00:18:46;;;;;;;20.50;3.50;;;;;;;8.14;88.14;100661.91;107770;1249;109753;-65
2023/04/21 00:21:16;;;;;;;23.30;3.20;;;;;;;8.15;88.07;100665.11;107637;1250;108774;-65
2023/04/21 00:23:46;;;;;;;21.90;2.80;;;;;;;8.14;87.73;100660.27;107826;1252;99692;-66
2023/04/21 00:26:14;;;;;;;31.10;4.50;;;;;;;8.13;87.40;100658.98;107943;1249;99073;-66
2023/04/21 00:28:44;;;;;;;21.90;2.80;;;;;;;8.13;87.41;100657.52;108001;1248;113191;-66
2023/04/21 00:31:13;;;;;;;15.60;2.80;;;;;;;8.15;87.28;100652.58;107884;1249;109080;-64
2023/04/21 00:33:42;;;;;;;20.00;2.70;;;;;;;8.17;87.22;100652.02;107931;1252;106327;-66
2023/04/21 00:36:10;;;;;;;22.00;3.10;;;;;;;8.19;87.05;100651.55;107944;1248;99156;-65
2023/04/21 00:38:39;;;;;;;32.00;4.20;;;;;;;8.21;86.85;100652.27;107824;1248;99153;-65
2023/04/21 00:41:09;;;;;;;13.60;2.40;;;;;;;8.24;86.66;100649.20;107954;1248;112867;-66
2023/04/21 00:44:02;;;;;;;20.20;4.20;;;;;;;8.25;86.18;100646.38;107783;1250;109571;-66
2023/04/21 00:46:35;;;;;;;16.10;2.60;;;;;;;8.27;85.83;100640.73;107648;1253;107955;-65
2023/04/21 00:49:06;;;;;;;26.40;2.70;;;;;;;8.27;85.56;100644.09;107661;1248;99173;-65
2023/04/21 00:51:36;;;;;;;26.00;2.80;;;;;;;8.28;85.00;100641.54;107690;1248;99028;-66
2023/04/21 00:54:07;;;;;;;21.70;4.40;;;;;;;8.26;84.64;100635.09;107968;1248;113551;-66
2023/04/21 00:56:36;;;;;;;21.80;3.00;;;;;;;8.25;84.62;100631.59;107828;1248;108811;-65
2023/04/21 00:59:04;;;;;;;18.30;2.70;;;;;;;8.23;84.63;100629.40;107735;1250;108746;-66
2023/04/21 01:01:43;;;;;;;22.50;3.80;;;;;;;8.21;84.81;100627.27;107576;1250;99161;-66
2023/04/21 01:04:12;;;;;;;18.00;3.00;;;;;;;8.20;85.11;100620.79;107663;1250;99140;-65
2023/04/21 01:06:42;;;;;;;26.60;4.00;;;;;;;8.17;85.18;100617.06;107635;1250;113565;-65
2023/04/21 01:09:11;;;;;;;25.60;4.80;;;;;;;8.18;85.50;100616.59;107753;1250;110066;-65
2023/04/21 01:11:40;;;;;;;30.60;4.20;;;;;;;8.20;85.51;100609.34;107742;1250;107688;-66
2023/04/21 01:14:08;;;;;;;22.80;3.60;;;;;;;8.18;85.55;100604.07;107834;1253;99183;-66
2023/04/21 01:16:38;;;;;;;26.70;4.10;;;;;;;8.15;85.43;100603.45;107930;1248;99761;-66
2023/04/21 01:19:07;;;;;;;22.90;3.30;;;;;;;8.13;85.42;100601.08;107761;1250;112608;-66
2023/04/21 01:21:41;;;;;;;24.20;3.70;;;;;;;8.10;85.26;100599.38;107838;1250;109241;-66
2023/04/21 01:24:10;;;;;;;26.70;3.90;;;;;;;8.05;85.32;100600.33;107710;1248;108672;-66
2023/04/21 01:26:39;;;;;;;16.90;3.10;;;;;;;8.01;85.87;100599.20;107922;1248;99291;-65
2023/04/21 01:29:08;;;;;;;19.50;4.70;;;;;;;7.96;86.13;100602.11;107903;1248;99240;-66
2023/04/21 01:31:37;;;;;;;32.70;4.80;;;;;;;7.94;86.59;100602.98;107775;1249;113470;-65
2023/04/21 01:34:08;;;;;;;20.80;3.80;;;;;;;7.92;86.90;100603.71;107701;1250;109535;-65
2023/04/21 01:36:37;;;;;;;17.30;3.10;;;;;;;7.91;87.02;100601.14;107577;1250;106281;-65
2023/04/21 01:39:06;;;;;;;27.00;4.10;;;;;;;7.88;87.51;100593.61;107885;1248;99163;-64
2023/04/21 01:41:35;;;;;;;28.00;3.50;;;;;;;7.88;87.39;100583.68;107700;1248;99821;-65
2023/04/21 01:44:04;;;;;;;32.90;5.30;;;;;;;7.88;87.39;100578.11;107959;1247;113617;-65
2023/04/21 01:46:33;;;;;;;22.70;4.00;;;;;;;7.88;87.24;100582.40;107948;1248;108697;-66
2023/04/21 01:49:03;;;;;;;29.00;5.40;;;;;;;7.91;87.36;100575.04;107640;1251;108566;-65
2023/04/21 01:51:33;;;;;;;24.00;4.60;;;;;;;7.93;87.27;100579.15;107829;1250;99292;-65
2023/04/21 01:54:01;;;;;;;20.30;3.50;;;;;;;7.95;87.35;100573.09;107912;1252;99694;-65
2023/04/21 01:56:30;;;;;;;29.30;3.80;;;;;;;7.97;87.47;100574.37;107680;1248;114458;-65
2023/04/21 01:59:00;;;;;;;22.10;3.80;;;;;;;7.97;87.37;100570.40;107787;1251;109934;-65
2023/04/21 02:01:28;;;;;;;32.40;4.00;;;;;;;7.99;87.52;100568.63;107742;1250;107778;-64
2023/04/21 02:03:57;;;;;;;25.30;3.10;;;;;;;8.02;87.56;100568.29;107678;1250;99151;-65
2023/04/21 02:06:26;;;;;;;24.10;4.30;;;;;;;8.03;87.50;100568.38;107784;1250;99661;-64
2023/04/21 02:08:54;;;;;;;27.20;4.00;;;;;;;8.06;87.62;100568.44;107733;1253;112998;-65
2023/04/21 02:11:24;;;;;;;35.20;4.50;;;;;;;8.07;87.45;100561.58;107727;1251;109518;-66
2023/04/21 02:13:53;;;;;;;24.60;5.90;;;;;;;8.09;87.41;100557.35;107769;1250;108445;-65
2023/04/21 02:16:28;;;;;;;25.80;3.90;;;;;;;8.11;87.38;100555.03;107928;1248;99240;-65
2023/04/21 02:18:57;;;;;;;24.40;3.90;;;;;;;8.11;87.33;100556.23;107812;1250;99052;-64
2023/04/21 02:21:27;;;;;;;25.40;3.60;;;;;;;8.11;87.06;100556.27;107659;1250;113067;-66
2023/04/21 02:23:56;;;;;;;27.70;3.20;;;;;;;8.11;86.98;100553.96;107755;1248;109471;-66
2023/04/21 02:26:26;;;;;;;25.50;3.90;;;;;;;8.09;86.84;100548.73;107895;1248;108250;-64
2023/04/21 02:28:55;;;;;;;22.00;3.70;;;;;;;8.09;86.46;100553.42;107656;1250;99211;-66
2023/04/21 02:31:23;;;;;;;25.20;3.70;;;;;;;8.08;86.42;100550.60;107904;1251;99106;-66
2023/04/21 02:33:53;;;;;;;27.80;4.50;;;;;;;8.08;86.39;100549.67;107804;1250;112714;-66
2023/04/21 02:36:22;;;;;;;16.50;3.40;;;;;;;8.08;86.19;100549.73;107692;1250;109104;-66
2023/04/21 02:38:50;;;;;;;14.20;3.50;;;;;;;8.07;86.27;100551.39;107768;1248;108028;-64
2023/04/21 02:41:19;;;;;;;24.00;3.20;;;;;;;8.06;86.36;100549.52;107977;1248;99156;-65
2023/04/21 02:43:51;;;;;;;15.50;3.50;;;;;;;8.07;86.17;100551.27;107655;1251;99932;-64
2023/04/21 02:46:22;;;;;;;21.30;3.60;;;;;;;8.06;85.97;100551.46;107640;1250;113005;-66
2023/04/21 02:48:51;;;;;;;22.60;3.60;;;;;;;8.08;86.00;100553.86;107704;1249;109812;-65
2023/04/21 02:51:19;;;;;;;20.10;4.00;;;;;;;8.06;85.93;100556.65;107636;1253;108178;-66
2023/04/21 02:53:48;;;;;;;23.10;3.90;;;;;;;8.06;85.85;100557.36;107591;1248;99231;-67
2023/04/21 02:56:17;;;;;;;27.00;3.80;;;;;;;8.07;85.86;100553.89;107602;1253;99200;-65
2023/04/21 02:58:46;;;;;;;23.50;3.40;;;;;;;8.07;85.69;100557.48;107648;1248;113115;-66
2023/04/21 03:01:15;;;;;;;23.00;4.70;;;;;;;8.08;85.66;100557.96;107967;1248;109163;-65
2023/04/21 03:03:44;;;;;;;15.10;3.10;;;;;;;8.08;85.44;100559.02;107582;1250;108054;-66
2023/04/21 03:06:13;;;;;;;31.20;4.40;;;;;;;8.06;85.15;100558.63;107607;1253;99157;-64
2023/04/21 03:08:41;;;;;;;27.90;3.60;;;;;;;8.07;85.37;100555.36;107787;1250;99800;-65
2023/04/21 03:11:10;;;;;;;16.60;3.60;;;;;;;8.06;85.14;100556.88;107642;1250;111962;-66
2023/04/21 03:13:39;;;;;;;29.20;4.20;;;;;;;8.05;85.07;100557.47;107812;1248;109033;-67
2023/04/21 03:16:07;;;;;;;34.30;3.60;;;;;;;8.04;85.21;100555.26;107691;1248;108031;-66
2023/04/21 03:18:36;;;;;;;33.10;5.80;;;;;;;8.02;85.13;100554.30;107926;1248;99155;-66
2023/04/21 03:21:05;;;;;;;20.90;4.40;;;;;;;8.05;85.18;100558.52;107720;1250;99065;-66
2023/04/21 03:23:33;;;;;;;26.00;3.50;;;;;;;8.08;85.24;100558.47;107730;1248;114182;-65
2023/04/21 03:26:08;;;;;;;25.00;3.80;;;;;;;8.12;85.30;100560.96;107684;1248;109977;-64
2023/04/21 03:28:37;;;;;;;30.70;4.20;;;;;;;8.13;85.02;100560.23;107648;1254;107986;-65
2023/04/21 03:31:06;;;;;;;26.30;4.60;;;;;;;8.14;84.90;100564.77;107840;1250;99304;-66
2023/04/21 03:33:35;;;;;;;18.30;5.90;;;;;;;8.18;84.74;100568.41;107816;1250;99061;-65
2023/04/21 03:36:04;;;;;;;23.70;5.20;;;;;;;8.21;84.78;100568.90;107605;1253;113595;-65
2023/04/21 03:38:32;;;;;;;19.70;4.10;;;;;;;8.24;84.78;100574.35;107646;1248;109038;-66
2023/04/21 03:41:03;;;;;;;24.20;5.50;;;;;;;8.26;84.91;100580.23;107753;1248;108465;-67
2023/04/21 03:43:32;;;;;;;32.60;4.40;;;;;;;8.31;84.51;100574.64;107911;1248;99247;-66
2023/04/21 03:46:00;;;;;;;23.90;4.20;;;;;;;8.34;84.22;100580.08;107687;1254;99264;-66
2023/04/21 03:48:30;;;;;;;25.40;4.50;;;;;;;8.34;83.43;100581.36;107958;1248;112200;-66
2023/04/21 03:50:59;;;;;;;24.40;4.80;;;;;;;8.35;83.02;100579.35;107654;1250;109052;-65
2023/04/21 03:53:27;;;;;;;28.50;3.90;;;;;;;8.36;82.74;100587.69;107755;1255;108444;-66
2023/04/21 03:55:55;;;;;;;30.20;3.60;;;;;;;8.35;82.61;100586.83;107818;1251;99182;-66
2023/04/21 03:58:25;;;;;;;25.30;3.90;;;;;;;8.34;82.61;100590.27;107828;1249;99766;-64
2023/04/21 04:00:53;;;;;;;20.40;4.80;;;;;;;8.35;82.33;100590.95;107801;1250;113563;-66
2023/04/21 04:03:24;;;;;;;12.70;3.30;;;;;;;8.37;82.37;100595.42;107615;1250;109943;-67
2023/04/21 04:05:53;;;;;;;20.50;4.30;;;;;;;8.40;82.43;100596.64;107693;1251;106727;-67
2023/04/21 04:08:22;;;;;;;34.30;6.10;;;;;;;8.43;82.49;100603.65;107688;1250;99152;-66
2023/04/21 04:10:52;;;;;;;23.20;4.60;;;;;;;8.46;82.33;100607.02;107814;1250;99276;-66
2023/04/21 04:13:21;;;;;;;31.30;5.20;;;;;;;8.48;82.42;100609.59;107699;1251;113505;-65
2023/04/21 04:15:49;;;;;;;23.60;4.10;;;;;;;8.51;82.33;100607.76;107586;1251;109262;-65
2023/04/21 04:18:18;;;;;;;21.00;3.90;;;;;;;8.52;82.01;100611.04;107658;1253;107828;-67
2023/04/21 04:20:47;;;;;;;23.50;4.30;;;;;;;8.53;81.76;100618.86;107631;1249;99396;-66
2023/04/21 04:23:15;;;;;;;21.50;4.40;;;;;;;8.52;81.55;100619.92;107638;1253;99116;-65
2023/04/21 04:25:44;;;;;;;33.20;4.50;;;;;;;8.54;81.48;100619.98;107644;1248;113208;-65
2023/04/21 04:28:14;;;;;;;24.40;4.50;;;;;;;8.55;81.12;100627.41;108009;1248;109595;-66
2023/04/21 04:30:44;;;;;;;26.70;4.50;;;;;;;8.55;80.89;100629.70;107748;1250;107418;-66
2023/04/21 04:33:13;;;;;;;33.10;5.10;;;;;;;8.57;80.73;100633.15;107795;1250;99052;-65
2023/04/21 04:35:41;;;;;;;27.30;3.80;;;;;;;8.59;80.69;100635.10;107792;1249;99217;-67
2023/04/21 04:38:10;;;;;;;27.30;4.90;;;;;;;8.61;80.20;100638.16;107845;1251;113086;-66
2023/04/21 04:40:38;;;;;;;28.00;4.90;;;;;;;8.63;79.37;100646.83;107683;1256;109329;-65
2023/04/21 04:43:09;;;;;;;20.00;4.00;;;;;;;8.63;79.75;100658.41;107674;1249;108373;-67
2023/04/21 04:45:37;;;;;;;22.30;4.30;;;;;;;8.65;79.77;100659.86;107711;1251;99077;-67
2023/04/21 04:48:06;;;;;;;19.90;3.70;;;;;;;8.67;79.37;100663.10;107817;1251;99704;-66
2023/04/21 04:50:34;;;;;;;16.60;4.30;;;;;;;8.68;78.70;100660.67;107586;1254;112953;-66
2023/04/21 04:53:03;;;;;;;17.50;3.90;;;;;;;8.71;77.13;100662.73;107700;1251;109142;-69
2023/04/21 04:55:31;;;;;;;13.20;3.20;;;;;;;8.75;76.19;100663.84;107568;1251;107787;-66
2023/04/21 04:58:00;;;;;;;14.60;3.80;;;;;;;8.80;74.75;100660.92;107558;1252;99290;-68
2023/04/21 05:00:30;;;;;;;17.20;3.70;;;;;;;8.85;74.66;100659.24;107735;1249;99733;-67
2023/04/21 05:02:59;;;;;;;25.20;3.80;;;;;;;8.91;74.26;100648.42;107719;1250;113222;-67
2023/04/21 05:05:29;;;;;;;22.10;4.00;;;;;;;8.96;73.37;100654.05;107598;1250;108983;-67
2023/04/21 05:08:04;;;;;;;16.10;4.90;;;;;;;8.99;72.49;100648.64;107629;1250;107646;-67
2023/04/21 05:10:47;;;;;;;22.40;4.00;;;;;;;8.97;73.00;100648.44;107695;1251;99093;-65
2023/04/21 05:13:16;;;;;;;20.50;4.80;;;;;;;9.00;72.79;100659.64;107668;1250;99242;-67
2023/04/21 05:15:45;;;;;;;23.00;4.10;;;;;;;9.00;72.86;100659.67;107841;1248;112559;-65
2023/04/21 05:18:13;;;;;;;16.10;4.00;;;;;;;9.01;72.78;100661.36;107913;1248;109653;-66
2023/04/21 05:20:42;;;;;;;15.60;3.80;;;;;;;9.03;72.96;100660.41;107664;1250;108220;-67
2023/04/21 05:23:10;;;;;;;22.10;4.50;;;;;;;9.09;72.48;100665.71;107710;1250;99757;-66
2023/04/21 05:25:39;;;;;;;30.50;4.90;;;;;;;9.14;72.05;100661.68;107590;1250;99040;-66
2023/04/21 05:28:07;;;;;;;20.80;4.60;;;;;;;9.19;71.11;100659.84;107640;1250;112952;-66
2023/04/21 05:30:36;;;;;;;14.40;3.70;;;;;;;9.23;70.49;100664.65;107879;1253;109079;-67
2023/04/21 05:33:05;;;;;;;17.50;4.60;;;;;;;9.27;70.05;100662.26;107959;1249;107777;-66
2023/04/21 05:35:34;;;;;;;28.20;4.30;;;;;;;9.30;70.16;100664.67;107748;1253;99300;-66
2023/04/21 05:38:05;;;;;;;20.20;4.00;;;;;;;9.31;70.03;100662.60;107959;1248;99688;-66
2023/04/21 05:40:34;;;;;;;19.30;4.20;;;;;;;9.31;69.73;100661.30;107691;1250;112658;-66
2023/04/21 05:43:02;;;;;;;23.50;3.80;;;;;;;9.31;69.80;100659.39;107672;1253;108070;-66
2023/04/21 05:45:30;;;;;;;25.40;3.60;;;;;;;9.32;70.14;100660.90;107663;1250;106741;-65
2023/04/21 05:47:59;;;;;;;15.50;3.20;;;;;;;9.36;69.73;100657.87;107617;1250;99151;-66
2023/04/21 05:50:32;;;;;;;24.30;4.10;;;;;;;9.38;70.01;100655.88;107584;1253;99700;-67
2023/04/21 05:53:01;;;;;;;18.40;3.60;;;;;;;9.43;69.77;100652.85;107615;1250;112931;-66
2023/04/21 05:55:29;;;;;;;13.20;3.90;;;;;;;9.46;69.32;100648.25;107690;1250;109647;-66
2023/04/21 05:57:58;;;;;;;12.80;3.20;;;;;;;9.52;68.85;100650.98;107598;1250;107677;-66
2023/04/21 06:00:26;;;;;;;28.50;3.30;;;;;;;9.56;68.65;100654.72;107683;1250;99164;-66
2023/04/21 06:02:55;;;;;;;19.60;3.60;;;;;;;9.60;68.92;100656.02;107561;1249;99173;-66
2023/04/21 06:05:25;;;;;;;18.60;3.70;;;;;;;9.61;68.45;100653.20;107681;1250;112147;-66
2023/04/21 06:07:53;;;;;;;20.00;6.10;;;;;;;9.62;68.63;100656.23;107691;1250;109901;-67
2023/04/21 06:10:22;;;;;;;19.10;3.50;;;;;;;9.64;68.72;100654.91;107686;1248;108292;-68
2023/04/21 06:12:50;;;;;;;21.90;4.70;;;;;;;9.68;68.25;100654.44;107687;1250;99208;-66
2023/04/21 06:15:18;;;;;;;30.70;3.80;;;;;;;9.68;68.84;100657.25;107709;1248;99795;-66
2023/04/21 06:17:52;;;;;;;18.30;3.50;;;;;;;9.74;68.80;100662.31;107964;1248;112639;-66
2023/04/21 06:20:21;;;;;;;29.70;4.20;;;;;;;9.79;68.40;100666.69;107996;1248;108623;-68
2023/04/21 06:22:49;;;;;;;25.20;3.70;;;;;;;9.85;67.99;100671.08;107934;1248;108234;-67
2023/04/21 06:25:18;;;;;;;27.30;3.90;;;;;;;9.88;68.02;100667.36;107911;1248;99278;-68
2023/04/21 06:27:46;;;;;;;30.40;3.80;;;;;;;9.93;68.63;100675.38;107649;1248;98689;-67
2023/04/21 06:30:16;;;;;;;19.70;3.50;;;;;;;10.00;68.92;100678.87;107753;1251;112135;-68
2023/04/21 06:32:46;;;;;;;27.90;4.00;;;;;;;10.06;68.85;100681.20;107759;1248;109400;-67
2023/04/21 06:35:15;;;;;;;14.70;3.50;;;;;;;10.11;67.96;100679.40;107934;1248;108828;-67
2023/04/21 06:37:44;;;;;;;15.50;3.40;;;;;;;10.13;68.32;100678.30;107616;1248;99213;-68
2023/04/21 06:40:14;;;;;;;23.80;4.80;;;;;;;10.23;68.22;100682.04;107582;1250;99698;-67
2023/04/21 06:42:43;;;;;;;15.20;3.20;;;;;;;10.37;68.07;100676.71;107709;1250;112176;-66
2023/04/21 06:45:12;;;;;;;26.10;3.10;;;;;;;10.53;67.45;100678.05;107690;1250;109279;-66
2023/04/21 06:47:41;;;;;;;15.90;3.30;;;;;;;10.65;66.39;100678.04;107602;1250;108610;-66
2023/04/21 06:50:09;;;;;;;22.60;3.70;;;;;;;10.77;65.83;100672.26;107723;1250;99172;-66
2023/04/21 06:52:38;;;;;;;15.40;3.30;;;;;;;10.88;66.08;100673.10;107646;1250;99176;-67
2023/04/21 06:55:07;;;;;;;20.80;3.70;;;;;;;11.00;65.44;100671.25;107689;1254;112715;-67
2023/04/21 06:57:35;;;;;;;22.60;3.50;;;;;;;11.09;64.30;100668.79;107752;1250;109158;-68
2023/04/21 07:00:05;;;;;;;19.40;3.80;;;;;;;11.19;64.00;100672.55;107625;1250;108858;-67
2023/04/21 07:02:34;;;;;;;12.10;3.20;;;;;;;11.29;63.73;100667.83;107648;1249;99098;-66
2023/04/21 07:05:03;;;;;;;17.50;3.50;;;;;;;11.36;63.00;100663.48;107624;1250;99202;-66
2023/04/21 07:07:32;;;;;;;20.70;4.10;;;;;;;11.40;63.06;100665.59;107685;1250;113483;-66
2023/04/21 07:10:00;;;;;;;25.70;3.60;;;;;;;11.43;63.49;100671.39;107746;1250;108590;-65
2023/04/21 07:12:29;;;;;;;18.90;3.50;;;;;;;11.48;63.64;100673.14;107589;1250;108676;-68
2023/04/21 07:14:57;;;;;;;19.40;3.80;;;;;;;11.53;62.55;100673.15;107711;1250;99165;-65
2023/04/21 07:17:26;;;;;;;20.50;2.90;;;;;;;11.56;61.47;100671.06;107741;1249;99721;-66
2023/04/21 07:19:54;;;;;;;18.20;4.20;;;;;;;11.58;62.60;100671.58;107639;1250;113542;-67
2023/04/21 07:22:23;;;;;;;21.20;3.10;;;;;;;11.71;61.57;100662.36;107584;1250;109504;-68
2023/04/21 07:24:51;;;;;;;13.90;2.70;;;;;;;11.84;61.07;100667.02;107646;1250;107773;-67
2023/04/21 07:27:19;;;;;;;29.70;3.50;;;;;;;12.00;61.00;100657.27;107545;1250;99195;-67
2023/04/21 07:29:49;;;;;;;22.50;3.10;;;;;;;12.14;61.46;100664.70;107738;1250;99717;-67
2023/04/21 07:32:18;;;;;;;19.10;2.70;;;;;;;12.26;61.24;100659.80;107593;1250;113662;-67
2023/04/21 07:34:47;;;;;;;18.70;3.00;;;;;;;12.37;61.21;100664.84;107637;1253;108752;-67
2023/04/21 07:37:16;;;;;;;13.50;2.90;;;;;;;12.47;60.61;100658.27;107892;1248;108271;-66
2023/04/21 07:39:45;;;;;;;29.60;3.50;;;;;;;12.50;60.21;100656.86;107935;1248;99166;-68
2023/04/21 07:42:14;;;;;;;17.90;3.40;;;;;;;12.57;59.22;100654.46;107952;1248;99182;-66
2023/04/21 07:44:42;;;;;;;13.90;2.60;;;;;;;12.58;58.44;100655.45;107754;1250;111300;-66
2023/04/21 07:47:11;;;;;;;20.70;3.40;;;;;;;12.54;58.35;100656.40;107694;1250;109471;-67
2023/04/21 07:49:40;;;;;;;21.70;3.10;;;;;;;12.48;59.07;100663.73;107579;1250;107198;-67
2023/04/21 07:52:09;;;;;;;10.30;2.40;;;;;;;12.49;60.12;100662.90;107894;1248;99163;-67
2023/04/21 07:54:37;;;;;;;21.00;2.60;;;;;;;12.53;59.76;100662.38;107719;1248;100402;-67
2023/04/21 07:57:06;;;;;;;29.40;3.40;;;;;;;12.60;60.30;100661.02;107926;1248;113214;-67
2023/04/21 07:59:35;;;;;;;18.60;3.40;;;;;;;12.71;58.80;100662.59;106979;1251;1317571;-67
2023/04/21 08:02:04;;;;;;;28.60;4.00;;;;;;;12.76;57.38;100659.25;107725;1250;107666;-66
2023/04/21 08:04:32;;;;;;;19.20;2.90;;;;;;;12.82;58.35;100654.80;107625;1251;99367;-66
2023/04/21 08:07:02;;;;;;;18.20;2.80;;;;;;;12.93;58.29;100655.02;107768;1251;99254;-67
2023/04/21 08:09:31;;;;;;;14.20;3.80;;;;;;;13.03;58.15;100652.27;107770;1250;112676;-68
2023/04/21 08:12:01;;;;;;;12.30;2.50;;;;;;;13.12;57.27;100644.30;107747;1250;110225;-68
2023/04/21 08:14:31;;;;;;;17.30;2.80;;;;;;;13.21;57.05;100654.33;107576;1253;109313;-66
2023/04/21 08:16:59;;;;;;;18.10;2.90;;;;;;;13.33;55.57;100653.20;107662;1250;99150;-67
2023/04/21 08:19:28;;;;;;;22.20;4.30;;;;;;;13.46;55.43;100652.02;107608;1250;99875;-68
2023/04/21 08:21:57;;;;;;;27.10;3.70;;;;;;;13.67;56.13;100652.04;107748;1249;112758;-67
2023/04/21 08:24:26;;;;;;;25.30;2.90;;;;;;;13.86;55.95;100656.55;107686;1250;109721;-67
2023/04/21 08:26:54;;;;;;;21.10;2.90;;;;;;;13.97;55.02;100651.39;107629;1250;108624;-68
2023/04/21 08:29:23;;;;;;;14.80;2.30;;;;;;;14.11;53.15;100645.35;107781;1250;99347;-69
2023/04/21 08:31:51;;;;;;;23.70;3.10;;;;;;;14.29;52.79;100640.84;107735;1250;99918;-67
2023/04/21 08:34:21;;;;;;;22.50;3.00;;;;;;;14.43;52.08;100642.70;107586;1250;112812;-70
2023/04/21 08:36:53;;;;;;;20.00;3.00;;;;;;;14.50;51.22;100643.17;107596;1249;109048;-68
2023/04/21 08:39:22;;;;;;;11.00;2.70;;;;;;;14.54;50.86;100640.69;107617;1250;106874;-66
2023/04/21 08:41:51;;;;;;;19.10;2.80;;;;;;;14.56;50.76;100644.71;107598;1250;99256;-67
2023/04/21 08:44:20;;;;;;;22.50;3.60;;;;;;;14.54;49.51;100638.59;107627;1249;99722;-66
2023/04/21 08:46:50;;;;;;;19.80;2.50;;;;;;;14.52;49.32;100650.16;107701;1250;111239;-66
2023/04/21 08:49:20;;;;;;;11.10;3.00;;;;;;;14.56;48.82;100647.42;107538;1250;109147;-66
2023/04/21 08:51:48;;;;;;;9.50;2.90;;;;;;;14.56;49.17;100644.52;107620;1250;106152;-65
2023/04/21 08:54:17;;;;;;;20.50;3.50;;;;;;;14.61;50.15;100648.52;107654;1250;99166;-68
2023/04/21 08:56:48;;;;;;;20.90;4.10;;;;;;;14.71;48.84;100647.08;107637;1249;99041;-65
2023/04/21 08:59:16;;;;;;;23.90;3.50;;;;;;;14.71;48.43;100644.88;107547;1250;113742;-66
2023/04/21 09:02:04;;;;;;;14.70;3.10;;;;;;;14.68;49.42;100646.16;107635;1250;109124;-67
2023/04/21 09:04:33;;;;;;;18.10;2.50;;;;;;;14.74;50.04;100651.09;107688;1250;109428;-68
2023/04/21 09:07:02;;;;;;;22.60;3.00;;;;;;;14.87;50.53;100654.00;107621;1250;99167;-68
2023/04/21 09:09:30;;;;;;;16.60;2.70;;;;;;;15.07;49.08;100654.40;107777;1249;98938;-68
2023/04/21 09:11:58;;;;;;;16.10;3.40;;;;;;;15.15;49.81;100648.51;107600;1250;113204;-66
2023/04/21 09:14:34;;;;;;;59.00;5.70;;;;;;;15.30;48.85;100651.11;107622;1249;108294;-68
2023/04/21 09:17:04;;;;;;;27.80;4.00;;;;;;;15.41;49.29;100651.27;107612;1253;107536;-67
2023/04/21 09:19:33;;;;;;;28.00;4.30;;;;;;;15.46;48.10;100648.70;107762;1251;99209;-67
2023/04/21 09:22:03;;;;;;;31.60;3.20;;;;;;;15.53;48.33;100649.50;107711;1250;99817;-65
2023/04/21 09:24:31;;;;;;;13.00;2.90;;;;;;;15.66;48.43;100650.77;107698;1250;112092;-66
2023/04/21 09:27:03;;;;;;;19.80;3.10;;;;;;;15.67;47.49;100643.77;107634;1250;110122;-65
2023/04/21 09:29:32;;;;;;;11.10;2.50;;;;;;;15.62;47.28;100642.53;107582;1250;107626;-66
2023/04/21 09:32:00;;;;;;;26.20;3.80;;;;;;;15.50;47.24;100637.58;107576;1250;99188;-67
2023/04/21 09:34:32;;;;;;;16.00;3.00;;;;;;;15.47;48.23;100637.52;107615;1250;99443;-67
2023/04/21 09:37:02;;;;;;;26.80;5.10;;;;;;;15.52;47.48;100624.36;107609;1250;113516;-66
2023/04/21 09:39:32;;;;;;;15.80;2.70;;;;;;;15.53;47.60;100618.26;107615;1250;110852;-64
2023/04/21 09:42:28;;;;;;;26.10;3.40;;;;;;;15.62;47.62;100606.54;107679;1250;108698;-66
2023/04/21 09:44:57;;;;;;;14.70;3.50;;;;;;;15.65;48.02;100614.52;107636;1250;99166;-66
2023/04/21 09:47:52;;;;;;;20.50;3.30;;;;;;;15.85;47.93;100608.76;107641;1253;99067;-66
2023/04/21 09:50:22;;;;;;;15.60;3.30;;;;;;;15.97;46.82;100608.86;107656;1250;113166;-64
2023/04/21 09:53:15;;;;;;;26.20;3.50;;;;;;;16.03;47.94;100607.41;107726;1255;109711;-66
2023/04/21 09:55:46;;;;;;;;;;;;;;;16.26;46.44;100597.49;107575;1250;108569;-68
2023/04/21 09:58:18;;;;;;;17.40;2.60;;;;;;;16.38;45.75;100599.82;107569;1250;99131;-66
2023/04/21 10:00:48;;;;;;;17.10;2.90;;;;;;;16.38;45.43;100600.75;107551;1250;99081;-66
2023/04/21 10:03:18;;;;;;;19.00;3.30;;;;;;;16.48;45.43;100595.82;107698;1250;112667;-66
2023/04/21 10:05:47;;;;;;;27.60;4.40;;;;;;;16.64;44.80;100598.80;107615;1250;110213;-66
2023/04/21 10:08:16;;;;;;;24.50;3.10;;;;;;;16.70;44.33;100590.34;107900;1252;107964;-66
2023/04/21 10:10:45;;;;;;;25.50;3.20;;;;;;;16.79;45.34;100593.17;107928;1248;99152;-66
2023/04/21 10:13:15;;;;;;;16.90;4.10;;;;;;;16.64;44.82;100590.95;107694;1253;99162;-66
2023/04/21 10:15:43;;;;;;;11.90;3.10;;;;;;;16.34;44.95;100598.80;107575;1250;113440;-67
2023/04/21 10:18:17;;;;;;;18.50;2.70;;;;;;;16.15;45.91;100602.21;107714;1251;109915;-65
2023/04/21 10:20:56;;;;;;;25.70;3.20;;;;;;;16.04;45.52;100601.00;107661;1251;108775;-65
2023/04/21 10:23:29;;;;;;;28.60;3.70;;;;;;;15.90;45.61;100604.01;107942;1252;99028;-67
2023/04/21 10:26:09;;;;;;;19.80;3.10;;;;;;;15.75;46.51;100600.83;107946;1248;99169;-66
2023/04/21 10:28:43;;;;;;;19.70;4.20;;;;;;;15.55;47.00;100607.20;107677;1250;113239;-66
2023/04/21 10:31:19;;;;;;;22.30;3.40;;;;;;;15.32;46.81;100603.48;107926;1248;109921;-66
2023/04/21 10:34:12;;;;;;;31.70;3.50;;;;;;;15.15;46.45;100596.83;107538;1250;108823;-64
2023/04/21 10:36:52;;;;;;;27.00;2.70;;;;;;;14.90;47.10;100595.89;107612;1250;99177;-66
2023/04/21 10:39:28;;;;;;;15.50;4.60;;;;;;;14.65;47.88;100601.33;107612;1250;99054;-67
2023/04/21 10:42:18;;;;;;;19.60;2.80;;;;;;;14.44;48.04;100603.21;107668;1250;112289;-64
2023/04/21 10:44:57;;;;;;;18.90;3.10;;;;;;;14.20;49.01;100607.54;107735;1250;109717;-65
2023/04/21 10:47:36;;;;;;;18.90;2.90;;;;;;;14.01;50.74;100614.09;107606;1250;108314;-69
2023/04/21 10:50:26;;;;;;;19.90;3.30;;;;;;;13.87;51.78;100615.17;107721;1250;99182;-68
2023/04/21 10:53:18;;;;;;;21.90;3.60;;;;;;;13.75;52.82;100615.18;107653;1250;99694;-70
2023/04/21 10:55:54;;;;;;;21.30;2.80;;;;;;;13.67;54.29;100617.28;107696;1256;111658;-67
2023/04/21 10:58:24;;;;;;;25.80;3.50;;;;;;;13.58;54.55;100612.27;107617;1250;109193;-65
2023/04/21 11:00:54;;;;;;;29.30;3.90;;;;;;;13.50;53.92;100612.52;107731;1249;107714;-66
2023/04/21 11:03:36;;;;;;;28.70;3.50;;;;;;;13.42;53.97;100614.73;107635;1250;99245;-67
2023/04/21 11:06:17;;;;;;;12.70;3.50;;;;;;;13.35;54.08;100614.45;107668;1253;99859;-68
2023/04/21 11:08:54;;;;;;;22.50;3.90;;;;;;;13.30;54.43;100617.76;107678;1250;114759;-68
2023/04/21 11:11:23;;;;;;;19.70;3.90;;;;;;;13.25;54.34;100616.88;107664;1250;110222;-66
2023/04/21 11:13:52;;;;;;;28.20;3.30;;;;;;;13.24;54.43;100616.57;107566;1250;108538;-68
2023/04/21 11:16:21;;;;;;;27.50;3.80;;;;;;;13.26;54.74;100618.23;107506;1250;99175;-68
2023/04/21 11:18:50;;;;;;;22.60;4.80;;;;;;;13.25;55.02;100622.45;107723;1250;99072;-68
2023/04/21 11:21:20;;;;;;;21.20;3.10;;;;;;;13.25;55.33;100626.23;107637;1250;114274;-68
2023/04/21 11:23:56;;;;;;;80.20;28.80;;;;;;;13.28;55.62;100626.49;107683;1248;109626;-67